Sherbro International Airport

Jump to: basic info | weather | comments

Related pages: nearby airports | nearby navaids | notams | map

Basic information (top)

Codes: BTE GFBN
Location: lon 7.532420, lat -12.518900, elev 14 ft / 4 m msl
Status: medium_airport
Scheduled airline service: yes
Links: Wikipedia Mobile

Weather (top)

Current conditions for Lungi International Airport 77nm (142km) NNW (rec'd 2014/07/31 19:30Z):

GFLL 311930Z 24005KT RA BKN011 FEW027CB 25/23 Q1014 RMK CB-NE

Airport forecast for Lungi International Airport 77nm (142km) NNW (rec'd 2014/07/31 18:00Z):

TAF GFLL 311600Z 3118/0124 24008KT 9999 TS BKN013 FEW027CB PROB30 
      TEMPO 3120/0104 12012KT 7000 TSRA BKNO10 FEW027CB 
      BECMG 0105/0107 28007KT 8000 RA 
      BECMG 0105/0107 26008KT 9000 BKN013

Latest comments (top)

No comments yet for Sherbro International Airport

More... (top)

See also NOTAMs and nearby airports and navaids, or visit the Sherbro International Airport page at the main OurAirports website..